臺東航空站 - ATIS

METAR RCFN 231200Z 36005KT 320V080 9999 FEW010 BKN035 BKN050 20/17 Q1026 NOSIG RMK A3030=

站台狀態:Online
最後更新:2020-02-24 03:30:02